Time;durP1;ratioP1;P1;durP2;ratioP2;P2;SDS_P1;SDS_P2;PMS_P1;PMS_P2;Temp;Humidity;BMP_temperature;BMP_pressure;BME280_temperature;BME280_humidity;BME280_pressure;Samples;Min_cycle;Max_cycle;Signal;HPM_P1;HPM_P2
2024/04/13 00:01:43;;;;;;;7.10;2.13;;;14.90;99.90;;;;;;5428029;26;20430;-67
2024/04/13 00:04:10;;;;;;;2.65;2.10;;;14.90;99.90;;;;;;5435142;26;20506;-67
2024/04/13 00:06:37;;;;;;;4.95;2.10;;;14.90;99.90;;;;;;5434618;26;20062;-67
2024/04/13 00:09:04;;;;;;;2.78;2.13;;;14.80;99.90;;;;;;5428347;26;20010;-67
2024/04/13 00:11:30;;;;;;;5.72;2.95;;;14.90;99.90;;;;;;5429822;26;20014;-66
2024/04/13 00:13:56;;;;;;;2.70;2.22;;;14.90;99.90;;;;;;5426702;26;20003;-66
2024/04/13 00:16:22;;;;;;;3.28;2.13;;;14.90;99.90;;;;;;5433836;26;20026;-67
2024/04/13 00:18:48;;;;;;;3.30;2.40;;;14.90;99.90;;;;;;5433305;26;20394;-67
2024/04/13 00:21:15;;;;;;;4.45;2.95;;;14.90;99.90;;;;;;5436681;26;20006;-67
2024/04/13 00:23:42;;;;;;;3.13;2.50;;;14.90;99.90;;;;;;5431762;26;19998;-67
2024/04/13 00:26:08;;;;;;;4.63;2.50;;;14.90;99.90;;;;;;5432555;26;20002;-67
2024/04/13 00:28:34;;;;;;;4.47;2.47;;;14.90;99.90;;;;;;5431873;26;20013;-67
2024/04/13 00:31:00;;;;;;;4.15;2.63;;;15.00;99.90;;;;;;5428580;26;20582;-67
2024/04/13 00:33:25;;;;;;;3.25;2.33;;;15.00;99.90;;;;;;5437230;26;20545;-66
2024/04/13 00:35:51;;;;;;;3.97;2.60;;;15.00;99.90;;;;;;5438566;26;20007;-67
2024/04/13 00:38:17;;;;;;;6.93;2.70;;;15.10;99.90;;;;;;5429557;26;20986;-66
2024/04/13 00:40:43;;;;;;;4.88;2.88;;;15.10;99.90;;;;;;5429828;26;20439;-66
2024/04/13 00:43:10;;;;;;;6.05;3.05;;;15.10;99.90;;;;;;5437081;26;20094;-67
2024/04/13 00:45:43;;;;;;;4.43;2.78;;;15.10;99.90;;;;;;5431108;26;20006;-67
2024/04/13 00:48:19;;;;;;;6.05;3.22;;;15.10;99.90;;;;;;5431832;26;19996;-67
2024/04/13 00:50:48;;;;;;;3.88;2.90;;;15.10;99.90;;;;;;5433960;26;19998;-66
2024/04/13 00:53:17;;;;;;;4.07;2.55;;;15.10;99.90;;;;;;5429318;26;19991;-66
2024/04/13 00:55:44;;;;;;;4.28;2.95;;;15.10;99.90;;;;;;5433425;26;19999;-66
2024/04/13 00:58:11;;;;;;;6.55;2.90;;;15.10;99.90;;;;;;5430637;26;20068;-67
2024/04/13 01:00:42;;;;;;;6.47;3.20;;;15.10;99.90;;;;;;5436420;26;20002;-67
2024/04/13 01:03:08;;;;;;;5.28;3.70;;;15.10;99.90;;;;;;5432053;26;19995;-67
2024/04/13 01:05:35;;;;;;;4.43;3.10;;;15.20;99.90;;;;;;5434053;26;20005;-67
2024/04/13 01:08:01;;;;;;;5.32;2.80;;;15.20;99.90;;;;;;5431639;26;20018;-67
2024/04/13 01:10:27;;;;;;;5.10;2.85;;;15.20;99.90;;;;;;5437046;26;20080;-67
2024/04/13 01:12:54;;;;;;;4.47;2.97;;;15.20;99.90;;;;;;5431536;26;19995;-67
2024/04/13 01:15:20;;;;;;;3.35;2.60;;;15.30;99.90;;;;;;5434415;26;20071;-67
2024/04/13 01:17:48;;;;;;;5.75;3.20;;;15.20;99.90;;;;;;5429239;26;20010;-67
2024/04/13 01:20:14;;;;;;;5.43;3.05;;;15.20;99.90;;;;;;5426440;26;19995;-67
2024/04/13 01:22:43;;;;;;;3.30;2.40;;;15.20;99.90;;;;;;5434863;26;20026;-67
2024/04/13 01:25:11;;;;;;;4.13;3.03;;;15.20;99.90;;;;;;5435814;26;20938;-66
2024/04/13 01:27:37;;;;;;;7.03;3.20;;;15.20;99.90;;;;;;5434185;26;19998;-67
2024/04/13 01:30:09;;;;;;;3.95;2.85;;;15.20;99.90;;;;;;5427853;26;20132;-67
2024/04/13 01:32:34;;;;;;;3.65;2.75;;;15.20;99.90;;;;;;5436679;26;20006;-67
2024/04/13 01:35:09;;;;;;;5.85;3.25;;;15.20;99.90;;;;;;5431717;26;19995;-67
2024/04/13 01:37:35;;;;;;;3.65;2.25;;;15.20;99.90;;;;;;5436468;26;20050;-67
2024/04/13 01:40:00;;;;;;;6.03;2.92;;;15.20;99.90;;;;;;5428606;26;19994;-67
2024/04/13 01:42:26;;;;;;;3.80;2.70;;;15.10;99.90;;;;;;5436639;26;20020;-67
2024/04/13 01:44:52;;;;;;;4.85;2.13;;;15.10;99.90;;;;;;5434178;26;20091;-67
2024/04/13 01:47:18;;;;;;;3.08;2.58;;;15.10;99.90;;;;;;5435892;26;20415;-67
2024/04/13 01:49:43;;;;;;;4.65;2.67;;;15.10;99.90;;;;;;5430250;26;20853;-67
2024/04/13 01:52:09;;;;;;;4.82;2.92;;;15.10;99.90;;;;;;5432169;26;20072;-67
2024/04/13 01:54:35;;;;;;;4.43;3.13;;;15.00;99.90;;;;;;5425341;26;20067;-67
2024/04/13 01:57:01;;;;;;;4.72;2.67;;;15.00;99.90;;;;;;5433574;26;20487;-67
2024/04/13 01:59:26;;;;;;;4.90;2.50;;;14.90;99.90;;;;;;5434269;26;19998;-67
2024/04/13 02:01:52;;;;;;;7.55;2.92;;;14.90;99.90;;;;;;5434740;26;20353;-67
2024/04/13 02:04:18;;;;;;;4.05;2.78;;;14.90;99.90;;;;;;5427809;26;20427;-67
2024/04/13 02:06:44;;;;;;;4.18;2.80;;;14.80;99.90;;;;;;5433077;26;20709;-66
2024/04/13 02:09:13;;;;;;;5.10;2.53;;;14.80;99.90;;;;;;5425561;26;20019;-67
2024/04/13 02:11:39;;;;;;;4.38;2.88;;;14.80;99.90;;;;;;5428300;26;20010;-66
2024/04/13 02:14:05;;;;;;;3.55;2.60;;;14.80;99.90;;;;;;5430424;26;21454;-67
2024/04/13 02:16:31;;;;;;;7.15;3.38;;;14.80;99.90;;;;;;5433313;26;20002;-67
2024/04/13 02:18:57;;;;;;;3.53;3.03;;;14.70;99.90;;;;;;5429097;26;20845;-67
2024/04/13 02:21:24;;;;;;;6.28;3.15;;;14.70;99.90;;;;;;5429642;26;19999;-67
2024/04/13 02:23:50;;;;;;;8.35;3.42;;;14.70;99.90;;;;;;5422005;26;20088;-67
2024/04/13 02:26:16;;;;;;;7.10;3.08;;;14.60;99.90;;;;;;5428713;26;19999;-67
2024/04/13 02:28:42;;;;;;;4.70;2.72;;;14.60;99.90;;;;;;5435291;26;20817;-67
2024/04/13 02:31:07;;;;;;;6.63;2.72;;;14.60;99.90;;;;;;5426058;26;19995;-67
2024/04/13 02:33:33;;;;;;;5.03;2.75;;;14.50;99.90;;;;;;5433174;26;20015;-68
2024/04/13 02:36:03;;;;;;;5.55;3.15;;;14.50;99.90;;;;;;5431202;26;20016;-69
2024/04/13 02:38:32;;;;;;;4.72;3.35;;;14.50;99.90;;;;;;5432052;26;20486;-68
2024/04/13 02:41:03;;;;;;;3.55;2.85;;;14.50;99.90;;;;;;5434069;26;20031;-68
2024/04/13 02:43:32;;;;;;;3.70;2.97;;;14.50;99.90;;;;;;5426739;26;20027;-68
2024/04/13 02:46:09;;;;;;;5.00;2.80;;;14.50;99.90;;;;;;5431599;26;19991;-69
2024/04/13 02:48:39;;;;;;;3.97;2.67;;;14.40;99.90;;;;;;5434283;26;20002;-69
2024/04/13 02:51:06;;;;;;;4.47;3.20;;;14.40;99.90;;;;;;5433344;26;20009;-69
2024/04/13 02:53:34;;;;;;;7.68;3.92;;;14.40;99.90;;;;;;5435601;26;20045;-69
2024/04/13 02:56:06;;;;;;;6.07;3.33;;;14.40;99.90;;;;;;5426432;26;20751;-69
2024/04/13 02:58:32;;;;;;;6.45;3.08;;;14.30;99.90;;;;;;5433038;26;19995;-69
2024/04/13 03:00:59;;;;;;;4.78;3.22;;;14.30;99.90;;;;;;5423054;26;20007;-68
2024/04/13 03:03:26;;;;;;;5.15;3.00;;;14.30;99.90;;;;;;5434246;26;20014;-68
2024/04/13 03:06:05;;;;;;;7.78;4.18;;;14.30;99.90;;;;;;5425303;26;20385;-69
2024/04/13 03:08:31;;;;;;;6.63;3.95;;;14.30;99.90;;;;;;5430283;26;19999;-69
2024/04/13 03:10:59;;;;;;;5.43;4.15;;;14.30;99.90;;;;;;5431294;26;20002;-68
2024/04/13 03:13:26;;;;;;;7.95;4.43;;;14.30;99.90;;;;;;5433683;26;20003;-68
2024/04/13 03:16:05;;;;;;;7.28;4.05;;;14.30;99.90;;;;;;5418712;26;20003;-69
2024/04/13 03:18:32;;;;;;;6.15;3.33;;;14.30;99.90;;;;;;5428026;26;19995;-68
2024/04/13 03:20:58;;;;;;;6.00;3.67;;;14.30;99.90;;;;;;5429877;26;20007;-68
2024/04/13 03:23:24;;;;;;;4.35;3.00;;;14.30;99.90;;;;;;5430946;26;19999;-69
2024/04/13 03:25:50;;;;;;;6.15;3.08;;;14.30;99.90;;;;;;5419269;26;20552;-69
2024/04/13 03:28:20;;;;;;;5.80;3.67;;;14.30;99.90;;;;;;5429123;26;20003;-68
2024/04/13 03:30:46;;;;;;;5.05;3.15;;;14.30;99.90;;;;;;5416125;26;20297;-68
2024/04/13 03:33:12;;;;;;;7.10;3.72;;;14.30;99.90;;;;;;5435204;26;20002;-69
2024/04/13 03:35:40;;;;;;;7.15;4.35;;;14.30;99.90;;;;;;5431943;26;20011;-68
2024/04/13 03:38:06;;;;;;;8.43;4.15;;;14.30;99.90;;;;;;5433857;26;20029;-69
2024/04/13 03:40:35;;;;;;;5.18;3.50;;;14.20;99.90;;;;;;5432599;26;20538;-69
2024/04/13 03:43:02;;;;;;;4.13;2.97;;;14.20;99.90;;;;;;5432610;26;20031;-69
2024/04/13 03:45:28;;;;;;;6.70;3.88;;;14.20;99.90;;;;;;5433276;26;20018;-68
2024/04/13 03:47:54;;;;;;;6.85;3.53;;;14.20;99.90;;;;;;5435142;26;19995;-69
2024/04/13 03:50:19;;;;;;;7.53;3.47;;;14.20;99.90;;;;;;5436311;26;20002;-69
2024/04/13 03:52:45;;;;;;;5.47;3.30;;;14.20;99.90;;;;;;5437817;26;20007;-69
2024/04/13 03:55:11;;;;;;;4.40;3.90;;;14.10;99.90;;;;;;5433982;26;20007;-68
2024/04/13 03:57:37;;;;;;;5.45;3.45;;;14.10;99.90;;;;;;5435836;26;20416;-69
2024/04/13 04:00:06;;;;;;;5.78;3.72;;;14.10;99.90;;;;;;5437758;26;20010;-69
2024/04/13 04:02:36;;;;;;;5.10;3.33;;;14.00;99.90;;;;;;5437135;26;20009;-69
2024/04/13 04:05:03;;;;;;;4.18;3.55;;;14.00;99.90;;;;;;5437742;26;20442;-69
2024/04/13 04:07:29;;;;;;;5.45;3.38;;;14.00;99.90;;;;;;5436767;26;20533;-68
2024/04/13 04:09:55;;;;;;;9.32;4.18;;;14.00;99.90;;;;;;5434679;26;19994;-69
2024/04/13 04:12:20;;;;;;;5.30;4.22;;;14.00;99.90;;;;;;5437251;26;20060;-69
2024/04/13 04:14:46;;;;;;;5.20;3.42;;;14.00;99.90;;;;;;5434383;26;19995;-69
2024/04/13 04:17:12;;;;;;;5.30;3.25;;;13.90;99.90;;;;;;5434440;26;19990;-69
2024/04/13 04:19:38;;;;;;;4.45;3.50;;;13.90;99.90;;;;;;5440318;26;20001;-69
2024/04/13 04:22:04;;;;;;;9.55;4.43;;;13.90;99.90;;;;;;5433623;26;20010;-69
2024/04/13 04:24:29;;;;;;;6.60;4.20;;;13.90;99.90;;;;;;5433921;26;19995;-68
2024/04/13 04:26:55;;;;;;;8.52;3.55;;;13.90;99.90;;;;;;5434715;26;19999;-69
2024/04/13 04:29:21;;;;;;;5.45;3.75;;;14.00;99.90;;;;;;5434989;26;19999;-69
2024/04/13 04:31:47;;;;;;;4.97;3.50;;;14.00;99.90;;;;;;5435936;26;20158;-68
2024/04/13 04:34:13;;;;;;;6.28;3.95;;;14.00;99.90;;;;;;5427569;26;20016;-68
2024/04/13 04:36:39;;;;;;;5.32;3.80;;;14.00;99.90;;;;;;5433510;26;20007;-69
2024/04/13 04:39:05;;;;;;;5.57;4.05;;;14.00;99.90;;;;;;5436471;26;20434;-69
2024/04/13 04:41:31;;;;;;;5.88;4.05;;;14.00;99.90;;;;;;5432913;26;20005;-69
2024/04/13 04:43:57;;;;;;;4.13;3.38;;;14.00;99.90;;;;;;5436615;26;20339;-69
2024/04/13 04:46:23;;;;;;;5.90;3.63;;;14.00;99.90;;;;;;5438556;26;20006;-69
2024/04/13 04:48:51;;;;;;;4.63;3.85;;;14.00;99.90;;;;;;5435565;26;19991;-69
2024/04/13 04:51:18;;;;;;;4.57;3.65;;;14.00;99.90;;;;;;5432838;26;20809;-69
2024/04/13 04:53:44;;;;;;;4.88;3.75;;;14.10;99.90;;;;;;5433105;26;19999;-69
2024/04/13 04:56:10;;;;;;;4.43;3.45;;;14.10;99.90;;;;;;5432393;26;20014;-69
2024/04/13 04:58:36;;;;;;;4.22;3.45;;;14.20;99.90;;;;;;5434095;26;20003;-68
2024/04/13 05:01:06;;;;;;;5.47;3.90;;;14.20;99.90;;;;;;5428707;26;20003;-68
2024/04/13 05:03:32;;;;;;;4.72;3.10;;;14.20;99.90;;;;;;5433366;26;20094;-69
2024/04/13 05:05:58;;;;;;;4.28;3.35;;;14.30;99.90;;;;;;5436910;26;19995;-69
2024/04/13 05:08:24;;;;;;;5.28;3.22;;;14.30;99.90;;;;;;5434884;26;20011;-69
2024/04/13 05:10:50;;;;;;;5.30;3.65;;;14.40;99.90;;;;;;5438925;26;20002;-69
2024/04/13 05:13:16;;;;;;;6.55;4.07;;;14.40;99.90;;;;;;5440034;26;19999;-69
2024/04/13 05:15:42;;;;;;;6.30;3.88;;;14.50;99.90;;;;;;5433470;26;20019;-69
2024/04/13 05:18:08;;;;;;;4.93;3.90;;;14.60;99.90;;;;;;5433913;26;20496;-69
2024/04/13 05:20:36;;;;;;;6.13;3.30;;;14.60;99.90;;;;;;5434370;26;20003;-69
2024/04/13 05:23:03;;;;;;;5.63;3.53;;;14.60;99.90;;;;;;5439550;26;20011;-69
2024/04/13 05:25:29;;;;;;;5.53;4.20;;;14.70;99.90;;;;;;5429474;26;20006;-68
2024/04/13 05:27:55;;;;;;;4.75;3.65;;;14.70;99.90;;;;;;5431080;26;20006;-69
2024/04/13 05:30:21;;;;;;;9.00;4.40;;;14.80;99.90;;;;;;5428609;26;19999;-69
2024/04/13 05:32:47;;;;;;;6.63;4.35;;;14.80;99.90;;;;;;5435863;26;20482;-69
2024/04/13 05:35:16;;;;;;;6.05;3.97;;;14.90;99.90;;;;;;5437179;26;20034;-69
2024/04/13 05:37:42;;;;;;;6.53;3.60;;;14.90;99.90;;;;;;5430668;26;20010;-69
2024/04/13 05:40:08;;;;;;;6.20;3.90;;;15.10;99.90;;;;;;5427594;26;20010;-69
2024/04/13 05:42:34;;;;;;;7.72;4.63;;;15.20;99.90;;;;;;5435017;26;20037;-69
2024/04/13 05:45:00;;;;;;;8.00;5.60;;;15.30;99.90;;;;;;5429210;26;20004;-69
2024/04/13 05:47:25;;;;;;;9.50;5.22;;;15.50;99.90;;;;;;5431793;26;20005;-69
2024/04/13 05:49:51;;;;;;;8.77;5.50;;;15.60;99.90;;;;;;5433568;26;22111;-69
2024/04/13 05:52:17;;;;;;;9.02;5.15;;;15.70;99.90;;;;;;5439506;26;20108;-69
2024/04/13 05:54:43;;;;;;;7.72;4.80;;;15.80;99.90;;;;;;5430462;26;20035;-69
2024/04/13 05:57:09;;;;;;;8.45;5.03;;;16.00;99.90;;;;;;5428387;26;20106;-68
2024/04/13 05:59:35;;;;;;;6.57;3.50;;;16.10;99.90;;;;;;5433610;26;20014;-68
2024/04/13 06:02:01;;;;;;;11.05;5.15;;;16.30;99.90;;;;;;5427688;26;19999;-69
2024/04/13 06:04:27;;;;;;;6.10;4.47;;;16.50;99.90;;;;;;5434263;26;20031;-69
2024/04/13 06:06:52;;;;;;;5.97;4.70;;;16.60;99.90;;;;;;5435025;26;20002;-69
2024/04/13 06:09:18;;;;;;;7.90;4.80;;;16.60;99.90;;;;;;5432244;26;19999;-68
2024/04/13 06:11:44;;;;;;;10.30;5.43;;;16.60;99.90;;;;;;5433722;26;20011;-69
2024/04/13 06:14:10;;;;;;;9.05;4.70;;;16.70;99.90;;;;;;5433918;26;20075;-69
2024/04/13 06:16:35;;;;;;;8.32;4.38;;;17.00;99.90;;;;;;5435908;26;20883;-68
2024/04/13 06:19:01;;;;;;;7.97;4.60;;;17.20;99.90;;;;;;5439223;26;20782;-69
2024/04/13 06:21:27;;;;;;;9.60;4.45;;;17.60;99.90;;;;;;5429385;26;20342;-67
2024/04/13 06:23:53;;;;;;;8.57;4.40;;;18.00;99.90;;;;;;5433408;26;20070;-69
2024/04/13 06:26:19;;;;;;;12.80;4.18;;;18.70;99.90;;;;;;5434079;26;20034;-68
2024/04/13 06:28:45;;;;;;;4.40;3.30;;;19.30;99.90;;;;;;5435228;26;20492;-69
2024/04/13 06:31:11;;;;;;;8.85;3.63;;;19.70;99.90;;;;;;5431959;26;20007;-69
2024/04/13 06:33:36;;;;;;;7.05;4.10;;;20.10;99.90;;;;;;5431138;26;20036;-69
2024/04/13 06:36:02;;;;;;;6.07;3.92;;;20.30;99.90;;;;;;5431091;26;20011;-69
2024/04/13 06:38:29;;;;;;;6.70;3.72;;;20.40;99.90;;;;;;5432526;26;19999;-68
2024/04/13 06:40:55;;;;;;;7.63;3.78;;;20.60;99.90;;;;;;5432310;26;20009;-69
2024/04/13 06:43:22;;;;;;;6.55;3.30;;;20.80;99.90;;;;;;5433394;26;20477;-69
2024/04/13 06:45:48;;;;;;;5.95;3.90;;;21.30;99.80;;;;;;5429121;26;19999;-69
2024/04/13 06:48:14;;;;;;;6.90;3.95;;;21.70;98.70;;;;;;5431150;26;20002;-69
2024/04/13 06:50:43;;;;;;;6.05;3.80;;;22.10;97.70;;;;;;5432783;26;20009;-69
2024/04/13 06:53:09;;;;;;;6.03;3.90;;;22.30;96.90;;;;;;5431685;26;20009;-69
2024/04/13 06:55:35;;;;;;;5.88;3.80;;;22.40;96.90;;;;;;5430639;26;19995;-69
2024/04/13 06:58:01;;;;;;;9.45;4.20;;;22.50;96.50;;;;;;5435304;26;19999;-68
2024/04/13 07:00:26;;;;;;;11.05;4.72;;;22.60;96.60;;;;;;5431166;26;20069;-68
2024/04/13 07:02:52;;;;;;;7.85;3.95;;;22.10;96.60;;;;;;5433590;26;20453;-68
2024/04/13 07:05:18;;;;;;;5.80;3.63;;;22.00;97.10;;;;;;5429293;26;20986;-69
2024/04/13 07:07:44;;;;;;;12.52;4.80;;;22.00;97.30;;;;;;5427763;26;20012;-69
2024/04/13 07:10:09;;;;;;;8.30;4.22;;;22.00;96.90;;;;;;5431865;26;19999;-69
2024/04/13 07:12:35;;;;;;;9.02;4.32;;;21.70;97.60;;;;;;5433042;26;20002;-69
2024/04/13 07:15:01;;;;;;;11.50;4.25;;;21.80;97.50;;;;;;5431779;26;20008;-69
2024/04/13 07:17:27;;;;;;;7.20;3.72;;;22.20;97.00;;;;;;5436412;26;20014;-69
2024/04/13 07:19:53;;;;;;;6.63;3.85;;;22.70;96.30;;;;;;5434975;26;20079;-69
2024/04/13 07:22:20;;;;;;;7.82;4.05;;;23.30;95.40;;;;;;5433105;26;20035;-69
2024/04/13 07:24:45;;;;;;;6.47;4.00;;;23.90;94.40;;;;;;5436338;26;20489;-69
2024/04/13 07:27:11;;;;;;;6.60;3.90;;;24.30;92.90;;;;;;5428571;26;19999;-68
2024/04/13 07:29:37;;;;;;;8.50;3.80;;;24.10;92.30;;;;;;5433842;26;20026;-68
2024/04/13 07:32:03;;;;;;;5.65;3.47;;;23.90;92.60;;;;;;5429357;26;19999;-69
2024/04/13 07:34:29;;;;;;;5.15;3.10;;;23.60;92.70;;;;;;5436456;26;20092;-68
2024/04/13 07:36:54;;;;;;;7.68;3.53;;;23.30;93.50;;;;;;5427335;26;20014;-69
2024/04/13 07:39:20;;;;;;;6.28;3.60;;;23.20;93.80;;;;;;5432051;26;20003;-68
2024/04/13 07:41:46;;;;;;;3.70;2.90;;;23.10;93.50;;;;;;5430596;26;19999;-69
2024/04/13 07:44:13;;;;;;;5.18;3.15;;;23.20;93.80;;;;;;5431458;26;19999;-69
2024/04/13 07:46:39;;;;;;;5.95;3.33;;;23.20;93.20;;;;;;5431944;26;20119;-69
2024/04/13 07:49:05;;;;;;;6.22;3.22;;;23.20;93.90;;;;;;5429441;26;21083;-68
2024/04/13 07:51:31;;;;;;;4.13;3.15;;;23.10;92.50;;;;;;5437142;26;19995;-69
2024/04/13 07:53:56;;;;;;;4.07;2.90;;;22.90;93.50;;;;;;5429659;26;20018;-69
2024/04/13 07:56:22;;;;;;;3.97;2.88;;;22.90;94.00;;;;;;5435422;26;20002;-69
2024/04/13 07:58:49;;;;;;;5.95;3.50;;;22.80;93.90;;;;;;5430430;26;20002;-68
2024/04/13 08:01:15;;;;;;;4.22;3.13;;;22.70;94.10;;;;;;5432506;26;19999;-68
2024/04/13 08:03:41;;;;;;;4.53;2.95;;;22.90;93.50;;;;;;5430378;26;20433;-68
2024/04/13 08:06:06;;;;;;;5.35;2.28;;;22.90;93.10;;;;;;5428089;26;20018;-69
2024/04/13 08:08:32;;;;;;;4.70;2.95;;;23.20;92.80;;;;;;5429676;26;20002;-69
2024/04/13 08:10:59;;;;;;;3.88;2.67;;;23.10;92.30;;;;;;5426294;26;20010;-69
2024/04/13 08:13:25;;;;;;;5.30;2.47;;;23.10;93.50;;;;;;5429477;26;19995;-69
2024/04/13 08:15:51;;;;;;;4.80;2.78;;;23.40;93.30;;;;;;5426317;26;19998;-69
2024/04/13 08:18:17;;;;;;;6.75;2.95;;;23.90;92.30;;;;;;5420755;26;20009;-69
2024/04/13 08:20:44;;;;;;;3.42;2.50;;;24.30;91.60;;;;;;5426987;26;20010;-69
2024/04/13 08:23:10;;;;;;;5.05;2.60;;;24.40;91.20;;;;;;5429317;26;19995;-68
2024/04/13 08:25:35;;;;;;;3.97;3.20;;;24.30;90.90;;;;;;5430950;26;20009;-68
2024/04/13 08:28:01;;;;;;;6.13;2.95;;;24.10;90.40;;;;;;5431975;26;20019;-68
2024/04/13 08:30:27;;;;;;;4.72;2.70;;;23.80;90.70;;;;;;5432799;26;19998;-68
2024/04/13 08:32:52;;;;;;;5.97;2.33;;;23.40;90.90;;;;;;5423745;26;20013;-68
2024/04/13 08:35:18;;;;;;;7.03;2.90;;;23.30;91.40;;;;;;5431102;26;20014;-68
2024/04/13 08:37:47;;;;;;;7.60;2.80;;;23.30;91.80;;;;;;5422701;26;19999;-68
2024/04/13 08:40:13;;;;;;;5.95;2.92;;;23.30;91.40;;;;;;5435754;26;20034;-68
2024/04/13 08:42:43;;;;;;;4.43;2.78;;;23.00;91.20;;;;;;5426189;26;20002;-68
2024/04/13 08:45:12;;;;;;;2.17;1.88;;;22.90;91.80;;;;;;5426677;26;20010;-69
2024/04/13 08:47:40;;;;;;;3.40;2.38;;;23.00;93.10;;;;;;5437342;26;20078;-69
2024/04/13 08:50:08;;;;;;;4.40;2.00;;;23.20;92.90;;;;;;5434098;26;20009;-68
2024/04/13 08:52:34;;;;;;;6.72;2.72;;;23.40;91.80;;;;;;5433990;26;20006;-68
2024/04/13 08:55:00;;;;;;;5.60;2.53;;;23.80;91.00;;;;;;5432569;26;20011;-68
2024/04/13 08:57:29;;;;;;;5.53;2.60;;;23.70;90.30;;;;;;5431863;26;19999;-68
2024/04/13 09:00:02;;;;;;;3.58;2.22;;;23.20;90.70;;;;;;5436280;26;20655;-68
2024/04/13 09:02:33;;;;;;;4.45;2.38;;;23.10;91.50;;;;;;5436650;26;20003;-68
2024/04/13 09:05:02;;;;;;;3.78;2.15;;;23.30;91.40;;;;;;5433142;26;20003;-69
2024/04/13 09:07:31;;;;;;;4.93;2.60;;;23.40;90.70;;;;;;5429532;26;20639;-69
2024/04/13 09:09:59;;;;;;;3.63;2.20;;;23.50;91.00;;;;;;5434269;26;20004;-68
2024/04/13 09:12:25;;;;;;;6.43;2.17;;;23.50;90.90;;;;;;5427913;26;20596;-69
2024/04/13 09:14:52;;;;;;;5.10;2.65;;;23.50;91.00;;;;;;5431722;26;20015;-69
2024/04/13 09:17:17;;;;;;;4.55;2.10;;;23.50;91.20;;;;;;5432465;26;20005;-68
2024/04/13 09:19:46;;;;;;;4.18;2.05;;;23.60;90.00;;;;;;5431184;26;20002;-69
2024/04/13 09:22:13;;;;;;;8.48;2.70;;;23.60;90.60;;;;;;5434128;26;19995;-68
2024/04/13 09:24:43;;;;;;;4.25;2.20;;;23.60;90.00;;;;;;5427860;26;19999;-68
2024/04/13 09:27:28;;;;;;;4.75;2.00;;;23.60;91.00;;;;;;5435766;26;19999;-68
2024/04/13 09:30:08;;;;;;;6.90;2.25;;;23.60;91.00;;;;;;5434714;26;20010;-69
2024/04/13 09:32:35;;;;;;;2.97;2.28;;;23.60;90.80;;;;;;5438391;26;19990;-67
2024/04/13 09:35:13;;;;;;;4.85;2.15;;;23.60;90.50;;;;;;5436928;26;20104;-68
2024/04/13 09:37:39;;;;;;;4.22;2.17;;;23.70;90.70;;;;;;5433706;26;20015;-67
2024/04/13 09:40:06;;;;;;;2.55;1.92;;;23.80;90.80;;;;;;5435583;26;20060;-67
2024/04/13 09:42:33;;;;;;;4.32;1.70;;;23.70;90.30;;;;;;5436682;26;20007;-67
2024/04/13 09:45:09;;;;;;;4.32;1.98;;;23.80;90.80;;;;;;5437094;26;20010;-68
2024/04/13 09:47:35;;;;;;;5.65;2.17;;;23.80;91.50;;;;;;5423195;26;19999;-67
2024/04/13 09:50:01;;;;;;;4.13;2.25;;;23.90;90.10;;;;;;5433922;26;19995;-67
2024/04/13 09:52:28;;;;;;;2.90;1.88;;;24.10;89.20;;;;;;5435669;26;20109;-67
2024/04/13 09:54:55;;;;;;;2.80;1.60;;;24.00;90.20;;;;;;5435835;26;20731;-68
2024/04/13 09:57:22;;;;;;;5.80;2.00;;;24.10;90.40;;;;;;5430441;26;20034;-68
2024/04/13 09:59:50;;;;;;;3.08;1.60;;;24.00;90.30;;;;;;5434217;26;20009;-69
2024/04/13 10:02:17;;;;;;;5.57;2.00;;;24.10;90.40;;;;;;5431151;26;19995;-68
2024/04/13 10:04:43;;;;;;;4.10;2.40;;;24.20;87.60;;;;;;5433947;26;20083;-67
2024/04/13 10:07:11;;;;;;;6.55;2.25;;;23.90;89.20;;;;;;5434452;26;20001;-67
2024/04/13 10:09:40;;;;;;;2.00;1.40;;;23.60;86.40;;;;;;5432540;26;20748;-67
2024/04/13 10:12:16;;;;;;;4.15;1.85;;;23.60;90.10;;;;;;5429988;26;20031;-67
2024/04/13 10:14:45;;;;;;;8.02;2.53;;;23.90;88.30;;;;;;5431069;26;20573;-67
2024/04/13 10:17:13;;;;;;;2.22;1.75;;;23.90;87.70;;;;;;5434700;26;20039;-67
2024/04/13 10:19:44;;;;;;;3.45;1.80;;;23.90;86.90;;;;;;5436069;26;20036;-67
2024/04/13 10:22:11;;;;;;;2.88;1.73;;;24.00;88.30;;;;;;5432944;26;20023;-67
2024/04/13 10:24:43;;;;;;;3.80;1.98;;;24.10;87.50;;;;;;5435660;26;20103;-66
2024/04/13 10:27:13;;;;;;;3.85;1.85;;;23.90;86.00;;;;;;5435835;26;20458;-66
2024/04/13 10:29:46;;;;;;;4.53;1.70;;;23.80;87.30;;;;;;5433529;26;20014;-71
2024/04/13 10:32:22;;;;;;;1.65;1.50;;;23.70;87.10;;;;;;5435798;26;20003;-67
2024/04/13 10:34:48;;;;;;;;;;;23.70;87.70;;;;;;5434882;26;20010;-67
2024/04/13 10:37:43;;;;;;;5.60;1.45;;;23.60;85.30;;;;;;5431417;26;19933;-67
2024/04/13 10:40:09;;;;;;;4.40;1.55;;;23.40;87.80;;;;;;5433989;26;20446;-67
2024/04/13 10:42:41;;;;;;;2.40;1.33;;;23.50;87.00;;;;;;5433738;26;20083;-67
2024/04/13 10:45:11;;;;;;;1.95;1.35;;;23.60;87.60;;;;;;5433678;26;20079;-67
2024/04/13 10:47:41;;;;;;;3.70;1.08;;;23.80;88.90;;;;;;5432360;26;19999;-67
2024/04/13 10:50:11;;;;;;;2.63;1.00;;;23.90;86.40;;;;;;5433486;26;20064;-67
2024/04/13 10:52:37;;;;;;;2.47;1.30;;;23.90;84.20;;;;;;5434737;26;20458;-68
2024/04/13 10:55:03;;;;;;;2.75;0.80;;;24.10;85.20;;;;;;5435103;26;20014;-67
2024/04/13 10:57:29;;;;;;;3.30;0.82;;;24.30;84.50;;;;;;5435713;26;20458;-67
2024/04/13 10:59:56;;;;;;;3.38;1.30;;;24.40;82.20;;;;;;5436910;26;20064;-67
2024/04/13 11:02:22;;;;;;;4.40;1.23;;;24.60;85.40;;;;;;5434077;26;20443;-67
2024/04/13 11:04:47;;;;;;;1.98;0.73;;;24.40;80.30;;;;;;5433449;26;20510;-67
2024/04/13 11:07:15;;;;;;;3.58;1.10;;;24.20;83.60;;;;;;5428462;26;19996;-68
2024/04/13 11:09:42;;;;;;;1.80;0.80;;;23.90;79.90;;;;;;5435639;26;20011;-67
2024/04/13 11:12:09;;;;;;;2.35;0.80;;;23.70;81.80;;;;;;5430644;26;20022;-66
2024/04/13 11:14:35;;;;;;;2.00;0.90;;;23.90;83.90;;;;;;5432823;26;20010;-66
2024/04/13 11:17:01;;;;;;;2.22;0.90;;;24.00;82.60;;;;;;5430245;26;20002;-65
2024/04/13 11:19:27;;;;;;;2.35;0.80;;;24.20;81.50;;;;;;5431243;26;20061;-66
2024/04/13 11:21:57;;;;;;;1.65;0.85;;;24.20;79.60;;;;;;5426489;26;21153;-67
2024/04/13 11:24:23;;;;;;;1.95;0.80;;;23.90;79.70;;;;;;5434526;26;20021;-66
2024/04/13 11:26:48;;;;;;;2.97;0.90;;;23.80;80.00;;;;;;5433060;26;20003;-66
2024/04/13 11:29:14;;;;;;;2.40;0.80;;;23.70;81.30;;;;;;5426903;26;19999;-68
2024/04/13 11:31:40;;;;;;;2.63;0.95;;;23.80;80.80;;;;;;5432031;26;19999;-68
2024/04/13 11:34:06;;;;;;;1.88;1.02;;;24.00;82.30;;;;;;5427878;26;20079;-68
2024/04/13 11:36:32;;;;;;;1.73;1.17;;;24.20;82.70;;;;;;5430074;26;20007;-68
2024/04/13 11:39:01;;;;;;;2.83;0.98;;;24.20;80.80;;;;;;5418931;26;20008;-68
2024/04/13 11:41:28;;;;;;;3.17;1.08;;;24.30;80.50;;;;;;5430103;26;19998;-68
2024/04/13 11:43:57;;;;;;;2.22;1.08;;;24.20;78.30;;;;;;5431091;26;20064;-68
2024/04/13 11:46:24;;;;;;;0.65;0.65;;;24.20;79.50;;;;;;5430528;26;20378;-67
2024/04/13 11:48:53;;;;;;;1.58;0.70;;;24.20;79.90;;;;;;5428913;26;19995;-68
2024/04/13 11:51:20;;;;;;;1.00;0.90;;;24.20;77.20;;;;;;5430116;26;19995;-68
2024/04/13 11:53:46;;;;;;;1.52;0.93;;;24.30;78.20;;;;;;5433222;26;20014;-68
2024/04/13 11:56:13;;;;;;;1.65;0.75;;;24.30;75.30;;;;;;5436316;26;20042;-68
2024/04/13 11:58:49;;;;;;;1.63;0.90;;;24.40;76.90;;;;;;5437138;26;20028;-68
2024/04/13 12:01:15;;;;;;;1.42;0.80;;;24.50;77.90;;;;;;5436440;26;20003;-67
2024/04/13 12:03:41;;;;;;;1.80;0.80;;;24.50;78.90;;;;;;5431609;26;20010;-68
2024/04/13 12:06:07;;;;;;;2.67;0.80;;;24.60;77.60;;;;;;5436129;26;20022;-68
2024/04/13 12:08:33;;;;;;;2.95;0.90;;;24.60;74.80;;;;;;5430361;26;20003;-68
2024/04/13 12:10:59;;;;;;;5.57;1.15;;;24.40;77.90;;;;;;5433017;26;20010;-69
2024/04/13 12:13:26;;;;;;;1.63;1.00;;;24.40;75.70;;;;;;5432336;26;20007;-69
2024/04/13 12:15:52;;;;;;;3.05;0.90;;;24.20;76.40;;;;;;5435137;26;20450;-68
2024/04/13 12:18:18;;;;;;;2.25;0.90;;;24.10;76.70;;;;;;5438689;26;20006;-69
2024/04/13 12:20:44;;;;;;;2.58;0.85;;;24.10;76.30;;;;;;5431119;26;19999;-69
2024/04/13 12:23:11;;;;;;;2.58;0.90;;;23.90;74.50;;;;;;5439985;26;20009;-69
2024/04/13 12:25:38;;;;;;;1.85;0.93;;;23.90;77.40;;;;;;5436635;26;20035;-69
2024/04/13 12:28:07;;;;;;;1.92;1.00;;;24.00;76.80;;;;;;5440026;26;20007;-68
2024/04/13 12:30:33;;;;;;;3.42;0.90;;;24.10;78.50;;;;;;5424606;26;20010;-69
2024/04/13 12:32:59;;;;;;;1.42;0.88;;;24.30;76.70;;;;;;5439585;26;20006;-69
2024/04/13 12:35:25;;;;;;;2.95;1.20;;;24.40;77.70;;;;;;5439849;26;20286;-69
2024/04/13 12:37:50;;;;;;;4.93;0.85;;;24.50;78.90;;;;;;5438617;26;20736;-69
2024/04/13 12:40:16;;;;;;;3.50;1.20;;;24.50;76.90;;;;;;5436331;26;19994;-69
2024/04/13 12:42:42;;;;;;;3.65;1.20;;;24.40;78.10;;;;;;5440398;26;20079;-69
2024/04/13 12:45:08;;;;;;;1.98;0.80;;;24.10;77.50;;;;;;5435688;26;20135;-69
2024/04/13 12:47:39;;;;;;;1.35;0.70;;;24.00;77.00;;;;;;5434652;26;20002;-69